sensor_id;sensor_type;location;lat;lon;timestamp;temperature;humidity
11934;DHT22;6026;48.784;9.198;2023-05-10T00:01:07;13.60;99.90
11934;DHT22;6026;48.784;9.198;2023-05-10T00:03:34;13.60;99.90
11934;DHT22;6026;48.784;9.198;2023-05-10T00:05:59;13.60;99.90
11934;DHT22;6026;48.784;9.198;2023-05-10T00:08:25;13.50;99.90
11934;DHT22;6026;48.784;9.198;2023-05-10T00:10:50;13.50;99.90
11934;DHT22;6026;48.784;9.198;2023-05-10T00:13:16;13.40;99.90
11934;DHT22;6026;48.784;9.198;2023-05-10T00:15:42;13.50;99.90
11934;DHT22;6026;48.784;9.198;2023-05-10T00:18:07;13.40;99.90
11934;DHT22;6026;48.784;9.198;2023-05-10T00:20:33;13.40;99.90
11934;DHT22;6026;48.784;9.198;2023-05-10T00:22:58;13.40;99.90
11934;DHT22;6026;48.784;9.198;2023-05-10T00:25:24;13.30;99.90
11934;DHT22;6026;48.784;9.198;2023-05-10T00:27:49;13.20;99.90
11934;DHT22;6026;48.784;9.198;2023-05-10T00:30:15;13.20;99.90
11934;DHT22;6026;48.784;9.198;2023-05-10T00:32:41;13.20;99.90
11934;DHT22;6026;48.784;9.198;2023-05-10T00:35:07;13.20;99.90
11934;DHT22;6026;48.784;9.198;2023-05-10T00:37:33;13.00;99.90
11934;DHT22;6026;48.784;9.198;2023-05-10T00:39:58;13.00;99.90
11934;DHT22;6026;48.784;9.198;2023-05-10T00:42:24;12.90;99.90
11934;DHT22;6026;48.784;9.198;2023-05-10T00:44:50;12.90;99.90
11934;DHT22;6026;48.784;9.198;2023-05-10T00:47:17;12.90;99.90
11934;DHT22;6026;48.784;9.198;2023-05-10T00:49:43;12.90;99.90
11934;DHT22;6026;48.784;9.198;2023-05-10T00:52:09;12.90;99.90
11934;DHT22;6026;48.784;9.198;2023-05-10T00:54:35;12.90;99.90
11934;DHT22;6026;48.784;9.198;2023-05-10T00:57:01;12.80;99.90
11934;DHT22;6026;48.784;9.198;2023-05-10T00:59:27;12.80;99.90
11934;DHT22;6026;48.784;9.198;2023-05-10T01:01:53;12.80;99.90
11934;DHT22;6026;48.784;9.198;2023-05-10T01:04:19;12.70;99.90
11934;DHT22;6026;48.784;9.198;2023-05-10T01:06:47;12.70;99.90
11934;DHT22;6026;48.784;9.198;2023-05-10T01:09:12;12.70;99.90
11934;DHT22;6026;48.784;9.198;2023-05-10T01:11:38;12.70;99.90
11934;DHT22;6026;48.784;9.198;2023-05-10T01:14:05;12.70;99.90
11934;DHT22;6026;48.784;9.198;2023-05-10T01:16:34;12.70;99.90
11934;DHT22;6026;48.784;9.198;2023-05-10T01:19:01;12.70;99.90
11934;DHT22;6026;48.784;9.198;2023-05-10T01:35:26;12.60;99.90
11934;DHT22;6026;48.784;9.198;2023-05-10T01:38:11;12.60;99.90
11934;DHT22;6026;48.784;9.198;2023-05-10T01:40:53;12.60;99.90
11934;DHT22;6026;48.784;9.198;2023-05-10T01:43:26;12.60;99.90
11934;DHT22;6026;48.784;9.198;2023-05-10T01:46:00;12.60;99.90
11934;DHT22;6026;48.784;9.198;2023-05-10T01:48:30;12.50;99.90
11934;DHT22;6026;48.784;9.198;2023-05-10T01:50:57;12.50;99.90
11934;DHT22;6026;48.784;9.198;2023-05-10T01:53:23;12.50;99.90
11934;DHT22;6026;48.784;9.198;2023-05-10T01:55:53;12.50;99.90
11934;DHT22;6026;48.784;9.198;2023-05-10T01:58:23;12.50;99.90
11934;DHT22;6026;48.784;9.198;2023-05-10T02:00:50;12.50;99.90
11934;DHT22;6026;48.784;9.198;2023-05-10T02:03:20;12.50;99.90
11934;DHT22;6026;48.784;9.198;2023-05-10T02:05:48;12.50;99.90
11934;DHT22;6026;48.784;9.198;2023-05-10T02:08:14;12.50;99.90
11934;DHT22;6026;48.784;9.198;2023-05-10T02:10:42;12.50;99.90
11934;DHT22;6026;48.784;9.198;2023-05-10T02:13:08;12.50;99.90
11934;DHT22;6026;48.784;9.198;2023-05-10T02:15:36;12.40;99.90
11934;DHT22;6026;48.784;9.198;2023-05-10T02:18:03;12.40;99.90
11934;DHT22;6026;48.784;9.198;2023-05-10T02:20:30;12.40;99.90
11934;DHT22;6026;48.784;9.198;2023-05-10T02:22:57;12.40;99.90
11934;DHT22;6026;48.784;9.198;2023-05-10T02:25:24;12.40;99.90
11934;DHT22;6026;48.784;9.198;2023-05-10T02:27:52;12.40;99.90
11934;DHT22;6026;48.784;9.198;2023-05-10T02:30:19;12.40;99.90
11934;DHT22;6026;48.784;9.198;2023-05-10T02:32:46;12.30;99.90
11934;DHT22;6026;48.784;9.198;2023-05-10T02:35:13;12.30;99.90
11934;DHT22;6026;48.784;9.198;2023-05-10T02:37:41;12.40;99.90
11934;DHT22;6026;48.784;9.198;2023-05-10T02:40:07;12.30;99.90
11934;DHT22;6026;48.784;9.198;2023-05-10T02:42:36;12.20;99.90
11934;DHT22;6026;48.784;9.198;2023-05-10T02:45:07;12.30;99.90
11934;DHT22;6026;48.784;9.198;2023-05-10T02:47:33;12.30;99.90
11934;DHT22;6026;48.784;9.198;2023-05-10T02:49:59;12.30;99.90
11934;DHT22;6026;48.784;9.198;2023-05-10T02:52:30;12.30;99.90
11934;DHT22;6026;48.784;9.198;2023-05-10T02:55:03;12.30;99.90
11934;DHT22;6026;48.784;9.198;2023-05-10T02:57:33;12.30;99.90
11934;DHT22;6026;48.784;9.198;2023-05-10T02:59:59;12.30;99.90
11934;DHT22;6026;48.784;9.198;2023-05-10T03:02:25;12.40;99.90
11934;DHT22;6026;48.784;9.198;2023-05-10T03:04:51;12.30;99.90
11934;DHT22;6026;48.784;9.198;2023-05-10T03:07:17;12.30;99.90
11934;DHT22;6026;48.784;9.198;2023-05-10T03:09:47;12.30;99.90
11934;DHT22;6026;48.784;9.198;2023-05-10T03:12:27;12.30;99.90
11934;DHT22;6026;48.784;9.198;2023-05-10T03:15:06;12.30;99.90
11934;DHT22;6026;48.784;9.198;2023-05-10T03:17:45;12.30;99.90
11934;DHT22;6026;48.784;9.198;2023-05-10T03:20:20;12.30;99.90
11934;DHT22;6026;48.784;9.198;2023-05-10T03:22:51;12.30;99.90
11934;DHT22;6026;48.784;9.198;2023-05-10T03:25:19;12.30;99.90
11934;DHT22;6026;48.784;9.198;2023-05-10T03:27:46;12.30;99.90
11934;DHT22;6026;48.784;9.198;2023-05-10T03:30:13;12.30;99.90
11934;DHT22;6026;48.784;9.198;2023-05-10T03:32:39;12.20;99.90
11934;DHT22;6026;48.784;9.198;2023-05-10T03:35:08;12.30;99.90
11934;DHT22;6026;48.784;9.198;2023-05-10T03:37:34;12.20;99.90
11934;DHT22;6026;48.784;9.198;2023-05-10T03:40:00;12.30;99.90
11934;DHT22;6026;48.784;9.198;2023-05-10T03:42:25;12.30;99.90
11934;DHT22;6026;48.784;9.198;2023-05-10T03:44:51;12.30;99.90
11934;DHT22;6026;48.784;9.198;2023-05-10T03:47:16;12.30;99.90
11934;DHT22;6026;48.784;9.198;2023-05-10T03:49:42;12.30;99.90
11934;DHT22;6026;48.784;9.198;2023-05-10T03:52:07;12.30;99.90
11934;DHT22;6026;48.784;9.198;2023-05-10T03:54:33;12.30;99.90
11934;DHT22;6026;48.784;9.198;2023-05-10T03:56:58;12.30;99.90
11934;DHT22;6026;48.784;9.198;2023-05-10T03:59:25;12.30;99.90
11934;DHT22;6026;48.784;9.198;2023-05-10T04:01:51;12.30;99.90
11934;DHT22;6026;48.784;9.198;2023-05-10T04:04:16;12.30;99.90
11934;DHT22;6026;48.784;9.198;2023-05-10T04:06:44;12.30;99.90
11934;DHT22;6026;48.784;9.198;2023-05-10T04:09:10;12.30;99.90
11934;DHT22;6026;48.784;9.198;2023-05-10T04:11:36;12.30;99.90
11934;DHT22;6026;48.784;9.198;2023-05-10T04:14:01;12.30;99.90
11934;DHT22;6026;48.784;9.198;2023-05-10T04:16:27;12.30;99.90
11934;DHT22;6026;48.784;9.198;2023-05-10T04:18:53;12.30;99.90
11934;DHT22;6026;48.784;9.198;2023-05-10T04:21:18;12.30;99.90
11934;DHT22;6026;48.784;9.198;2023-05-10T04:23:44;12.30;99.90
11934;DHT22;6026;48.784;9.198;2023-05-10T04:26:10;12.30;99.90
11934;DHT22;6026;48.784;9.198;2023-05-10T04:28:35;12.30;99.90
11934;DHT22;6026;48.784;9.198;2023-05-10T04:31:05;12.40;99.90
11934;DHT22;6026;48.784;9.198;2023-05-10T04:33:31;12.40;99.90
11934;DHT22;6026;48.784;9.198;2023-05-10T04:35:57;12.40;99.90
11934;DHT22;6026;48.784;9.198;2023-05-10T04:38:23;12.40;99.90
11934;DHT22;6026;48.784;9.198;2023-05-10T04:40:48;12.50;99.90
11934;DHT22;6026;48.784;9.198;2023-05-10T04:43:14;12.40;99.90
11934;DHT22;6026;48.784;9.198;2023-05-10T04:45:40;12.50;99.90
11934;DHT22;6026;48.784;9.198;2023-05-10T04:48:05;12.50;99.90
11934;DHT22;6026;48.784;9.198;2023-05-10T04:50:31;12.50;99.90
11934;DHT22;6026;48.784;9.198;2023-05-10T04:52:57;12.50;99.90
11934;DHT22;6026;48.784;9.198;2023-05-10T04:55:22;12.50;99.90
11934;DHT22;6026;48.784;9.198;2023-05-10T04:57:48;12.50;99.90
11934;DHT22;6026;48.784;9.198;2023-05-10T05:00:14;12.60;99.90
11934;DHT22;6026;48.784;9.198;2023-05-10T05:02:43;12.60;99.90
11934;DHT22;6026;48.784;9.198;2023-05-10T05:05:09;12.60;99.90
11934;DHT22;6026;48.784;9.198;2023-05-10T05:07:35;12.70;99.90
11934;DHT22;6026;48.784;9.198;2023-05-10T05:10:01;12.60;99.90
11934;DHT22;6026;48.784;9.198;2023-05-10T05:12:26;12.70;99.90
11934;DHT22;6026;48.784;9.198;2023-05-10T05:14:52;12.70;99.90
11934;DHT22;6026;48.784;9.198;2023-05-10T05:17:17;12.70;99.90
11934;DHT22;6026;48.784;9.198;2023-05-10T05:19:43;12.80;99.90
11934;DHT22;6026;48.784;9.198;2023-05-10T05:22:08;12.80;99.90
11934;DHT22;6026;48.784;9.198;2023-05-10T05:24:37;12.90;99.90
11934;DHT22;6026;48.784;9.198;2023-05-10T05:27:03;12.90;99.90
11934;DHT22;6026;48.784;9.198;2023-05-10T05:29:29;12.90;99.90
11934;DHT22;6026;48.784;9.198;2023-05-10T05:31:55;13.00;99.90
11934;DHT22;6026;48.784;9.198;2023-05-10T05:34:20;13.00;99.90
11934;DHT22;6026;48.784;9.198;2023-05-10T05:36:47;13.00;99.90
11934;DHT22;6026;48.784;9.198;2023-05-10T05:39:12;13.00;99.90
11934;DHT22;6026;48.784;9.198;2023-05-10T05:41:38;13.10;99.90
11934;DHT22;6026;48.784;9.198;2023-05-10T05:44:03;13.10;99.90
11934;DHT22;6026;48.784;9.198;2023-05-10T05:46:29;13.10;99.90
11934;DHT22;6026;48.784;9.198;2023-05-10T05:48:55;13.20;99.90
11934;DHT22;6026;48.784;9.198;2023-05-10T05:51:20;13.10;99.90
11934;DHT22;6026;48.784;9.198;2023-05-10T05:53:46;13.10;99.90
11934;DHT22;6026;48.784;9.198;2023-05-10T05:56:11;13.10;99.90
11934;DHT22;6026;48.784;9.198;2023-05-10T05:58:37;13.20;99.90
11934;DHT22;6026;48.784;9.198;2023-05-10T06:01:03;13.20;99.90
11934;DHT22;6026;48.784;9.198;2023-05-10T06:03:28;13.20;99.90
11934;DHT22;6026;48.784;9.198;2023-05-10T06:05:54;13.20;99.90
11934;DHT22;6026;48.784;9.198;2023-05-10T06:08:19;13.30;99.90
11934;DHT22;6026;48.784;9.198;2023-05-10T06:10:45;13.30;99.90
11934;DHT22;6026;48.784;9.198;2023-05-10T06:13:11;13.30;99.90
11934;DHT22;6026;48.784;9.198;2023-05-10T06:15:37;13.40;99.90
11934;DHT22;6026;48.784;9.198;2023-05-10T06:18:02;13.40;99.90
11934;DHT22;6026;48.784;9.198;2023-05-10T06:20:28;13.50;99.90
11934;DHT22;6026;48.784;9.198;2023-05-10T06:22:54;13.50;99.90
11934;DHT22;6026;48.784;9.198;2023-05-10T06:25:20;13.60;99.90
11934;DHT22;6026;48.784;9.198;2023-05-10T06:27:45;13.60;99.90
11934;DHT22;6026;48.784;9.198;2023-05-10T06:30:11;13.60;99.90
11934;DHT22;6026;48.784;9.198;2023-05-10T06:32:38;13.70;99.90
11934;DHT22;6026;48.784;9.198;2023-05-10T06:35:04;13.70;99.90
11934;DHT22;6026;48.784;9.198;2023-05-10T06:37:30;13.70;99.90
11934;DHT22;6026;48.784;9.198;2023-05-10T06:39:55;13.70;99.90
11934;DHT22;6026;48.784;9.198;2023-05-10T06:42:21;13.70;99.90
11934;DHT22;6026;48.784;9.198;2023-05-10T06:44:46;13.80;99.90
11934;DHT22;6026;48.784;9.198;2023-05-10T06:47:12;13.70;99.90
11934;DHT22;6026;48.784;9.198;2023-05-10T06:49:37;13.70;99.90
11934;DHT22;6026;48.784;9.198;2023-05-10T06:52:03;13.70;99.90
11934;DHT22;6026;48.784;9.198;2023-05-10T06:54:29;13.60;99.90
11934;DHT22;6026;48.784;9.198;2023-05-10T06:56:55;13.70;99.90
11934;DHT22;6026;48.784;9.198;2023-05-10T06:59:20;13.60;99.90
11934;DHT22;6026;48.784;9.198;2023-05-10T07:01:47;13.60;99.90
11934;DHT22;6026;48.784;9.198;2023-05-10T07:04:12;13.60;99.90
11934;DHT22;6026;48.784;9.198;2023-05-10T07:06:38;13.60;99.90
11934;DHT22;6026;48.784;9.198;2023-05-10T07:09:04;13.60;99.90
11934;DHT22;6026;48.784;9.198;2023-05-10T07:11:29;13.60;99.90
11934;DHT22;6026;48.784;9.198;2023-05-10T07:13:55;13.60;99.90
11934;DHT22;6026;48.784;9.198;2023-05-10T07:16:21;13.60;99.90
11934;DHT22;6026;48.784;9.198;2023-05-10T07:18:46;13.70;99.90
11934;DHT22;6026;48.784;9.198;2023-05-10T07:21:12;13.80;99.90
11934;DHT22;6026;48.784;9.198;2023-05-10T07:23:37;13.90;99.90
11934;DHT22;6026;48.784;9.198;2023-05-10T07:26:03;14.10;99.90
11934;DHT22;6026;48.784;9.198;2023-05-10T07:28:29;14.20;99.90
11934;DHT22;6026;48.784;9.198;2023-05-10T07:30:54;14.30;99.90
11934;DHT22;6026;48.784;9.198;2023-05-10T07:33:20;14.30;99.90
11934;DHT22;6026;48.784;9.198;2023-05-10T07:35:45;14.50;99.90
11934;DHT22;6026;48.784;9.198;2023-05-10T07:38:11;14.60;99.90
11934;DHT22;6026;48.784;9.198;2023-05-10T07:40:37;14.70;99.90
11934;DHT22;6026;48.784;9.198;2023-05-10T07:43:03;14.80;99.90
11934;DHT22;6026;48.784;9.198;2023-05-10T07:45:29;14.90;99.90
11934;DHT22;6026;48.784;9.198;2023-05-10T07:47:54;14.90;99.90
11934;DHT22;6026;48.784;9.198;2023-05-10T07:50:20;15.00;99.90
11934;DHT22;6026;48.784;9.198;2023-05-10T07:52:46;15.10;99.90
11934;DHT22;6026;48.784;9.198;2023-05-10T07:55:12;15.10;99.90
11934;DHT22;6026;48.784;9.198;2023-05-10T07:57:38;15.10;99.90
11934;DHT22;6026;48.784;9.198;2023-05-10T08:00:04;15.20;99.90
11934;DHT22;6026;48.784;9.198;2023-05-10T08:02:30;15.20;99.90
11934;DHT22;6026;48.784;9.198;2023-05-10T08:04:56;15.20;99.90
11934;DHT22;6026;48.784;9.198;2023-05-10T08:07:24;15.20;99.90
11934;DHT22;6026;48.784;9.198;2023-05-10T08:09:49;15.20;99.90
11934;DHT22;6026;48.784;9.198;2023-05-10T08:12:15;15.30;99.90
11934;DHT22;6026;48.784;9.198;2023-05-10T08:14:41;15.40;99.90
11934;DHT22;6026;48.784;9.198;2023-05-10T08:17:06;15.30;99.90
11934;DHT22;6026;48.784;9.198;2023-05-10T08:19:32;15.20;99.90
11934;DHT22;6026;48.784;9.198;2023-05-10T08:21:57;15.20;99.90
11934;DHT22;6026;48.784;9.198;2023-05-10T08:24:23;15.20;99.90
11934;DHT22;6026;48.784;9.198;2023-05-10T08:26:48;15.20;99.90
11934;DHT22;6026;48.784;9.198;2023-05-10T08:29:14;15.30;99.90
11934;DHT22;6026;48.784;9.198;2023-05-10T08:31:40;15.30;99.90
11934;DHT22;6026;48.784;9.198;2023-05-10T08:34:06;15.40;99.90
11934;DHT22;6026;48.784;9.198;2023-05-10T08:36:32;15.50;99.90
11934;DHT22;6026;48.784;9.198;2023-05-10T08:38:58;15.50;99.90
11934;DHT22;6026;48.784;9.198;2023-05-10T08:41:24;15.50;99.90
11934;DHT22;6026;48.784;9.198;2023-05-10T08:43:51;15.50;99.90
11934;DHT22;6026;48.784;9.198;2023-05-10T08:46:18;15.50;99.90
11934;DHT22;6026;48.784;9.198;2023-05-10T08:48:45;15.50;99.90
11934;DHT22;6026;48.784;9.198;2023-05-10T08:51:15;15.50;99.90
11934;DHT22;6026;48.784;9.198;2023-05-10T08:53:43;15.50;99.90
11934;DHT22;6026;48.784;9.198;2023-05-10T08:56:09;15.60;99.90
11934;DHT22;6026;48.784;9.198;2023-05-10T08:58:36;15.70;99.90
11934;DHT22;6026;48.784;9.198;2023-05-10T09:01:02;15.80;99.90
11934;DHT22;6026;48.784;9.198;2023-05-10T09:03:29;15.90;99.90
11934;DHT22;6026;48.784;9.198;2023-05-10T09:05:55;16.00;99.90
11934;DHT22;6026;48.784;9.198;2023-05-10T09:08:24;16.10;99.90
11934;DHT22;6026;48.784;9.198;2023-05-10T09:10:54;16.20;99.90
11934;DHT22;6026;48.784;9.198;2023-05-10T09:13:21;16.30;99.90
11934;DHT22;6026;48.784;9.198;2023-05-10T09:15:47;16.30;99.90
11934;DHT22;6026;48.784;9.198;2023-05-10T09:18:13;16.30;99.90
11934;DHT22;6026;48.784;9.198;2023-05-10T09:20:39;16.40;99.90
11934;DHT22;6026;48.784;9.198;2023-05-10T09:23:05;16.40;99.90
11934;DHT22;6026;48.784;9.198;2023-05-10T09:25:31;16.40;99.90
11934;DHT22;6026;48.784;9.198;2023-05-10T09:27:59;16.30;99.90
11934;DHT22;6026;48.784;9.198;2023-05-10T09:30:31;16.20;99.90
11934;DHT22;6026;48.784;9.198;2023-05-10T09:32:58;16.00;99.90
11934;DHT22;6026;48.784;9.198;2023-05-10T09:35:29;16.00;99.90
11934;DHT22;6026;48.784;9.198;2023-05-10T09:37:57;15.90;99.90
11934;DHT22;6026;48.784;9.198;2023-05-10T09:40:27;16.00;99.90
11934;DHT22;6026;48.784;9.198;2023-05-10T09:45:25;16.30;99.90
11934;DHT22;6026;48.784;9.198;2023-05-10T09:47:51;16.40;99.90
11934;DHT22;6026;48.784;9.198;2023-05-10T09:50:17;16.60;99.90
11934;DHT22;6026;48.784;9.198;2023-05-10T09:52:58;16.70;99.90
11934;DHT22;6026;48.784;9.198;2023-05-10T09:55:26;16.80;99.90
11934;DHT22;6026;48.784;9.198;2023-05-10T09:58:03;16.90;99.90
11934;DHT22;6026;48.784;9.198;2023-05-10T10:00:35;17.00;99.90
11934;DHT22;6026;48.784;9.198;2023-05-10T10:03:01;17.10;99.90
11934;DHT22;6026;48.784;9.198;2023-05-10T10:05:34;17.30;99.90
11934;DHT22;6026;48.784;9.198;2023-05-10T10:08:02;17.20;99.90
11934;DHT22;6026;48.784;9.198;2023-05-10T10:10:29;17.20;99.90
11934;DHT22;6026;48.784;9.198;2023-05-10T10:12:56;17.10;99.90
11934;DHT22;6026;48.784;9.198;2023-05-10T10:15:22;17.10;99.90
11934;DHT22;6026;48.784;9.198;2023-05-10T10:17:49;17.00;99.90
11934;DHT22;6026;48.784;9.198;2023-05-10T10:20:15;16.70;99.90
11934;DHT22;6026;48.784;9.198;2023-05-10T10:22:41;16.60;99.90
11934;DHT22;6026;48.784;9.198;2023-05-10T10:25:08;16.60;99.90
11934;DHT22;6026;48.784;9.198;2023-05-10T10:27:49;16.70;99.90
11934;DHT22;6026;48.784;9.198;2023-05-10T10:30:41;16.80;99.90
11934;DHT22;6026;48.784;9.198;2023-05-10T10:33:51;16.80;99.90
11934;DHT22;6026;48.784;9.198;2023-05-10T10:36:21;17.00;99.90
11934;DHT22;6026;48.784;9.198;2023-05-10T10:41:31;17.30;99.90
11934;DHT22;6026;48.784;9.198;2023-05-10T10:47:06;17.50;99.90
11934;DHT22;6026;48.784;9.198;2023-05-10T10:52:26;17.50;99.90
11934;DHT22;6026;48.784;9.198;2023-05-10T10:55:10;17.30;99.90
11934;DHT22;6026;48.784;9.198;2023-05-10T10:57:50;17.10;99.90
11934;DHT22;6026;48.784;9.198;2023-05-10T11:00:32;17.00;99.90
11934;DHT22;6026;48.784;9.198;2023-05-10T11:07:55;16.50;99.90
11934;DHT22;6026;48.784;9.198;2023-05-10T11:10:21;16.30;99.90
11934;DHT22;6026;48.784;9.198;2023-05-10T11:13:04;16.20;99.90
11934;DHT22;6026;48.784;9.198;2023-05-10T11:15:38;16.10;99.90
11934;DHT22;6026;48.784;9.198;2023-05-10T11:18:18;15.80;99.90
11934;DHT22;6026;48.784;9.198;2023-05-10T11:20:44;15.70;99.90
11934;DHT22;6026;48.784;9.198;2023-05-10T11:23:15;15.70;99.90
11934;DHT22;6026;48.784;9.198;2023-05-10T11:25:43;15.60;99.90
11934;DHT22;6026;48.784;9.198;2023-05-10T11:28:10;15.60;99.90
11934;DHT22;6026;48.784;9.198;2023-05-10T11:30:37;15.50;99.90
11934;DHT22;6026;48.784;9.198;2023-05-10T11:33:03;15.60;99.90
11934;DHT22;6026;48.784;9.198;2023-05-10T11:35:29;15.70;99.90
11934;DHT22;6026;48.784;9.198;2023-05-10T11:37:54;15.80;99.90
11934;DHT22;6026;48.784;9.198;2023-05-10T11:40:21;15.90;99.90
11934;DHT22;6026;48.784;9.198;2023-05-10T11:42:50;16.00;99.90
11934;DHT22;6026;48.784;9.198;2023-05-10T11:45:15;16.20;99.90
11934;DHT22;6026;48.784;9.198;2023-05-10T11:47:41;16.30;99.90
11934;DHT22;6026;48.784;9.198;2023-05-10T11:50:09;16.40;99.90
11934;DHT22;6026;48.784;9.198;2023-05-10T11:52:36;16.40;99.90
11934;DHT22;6026;48.784;9.198;2023-05-10T11:55:03;16.50;99.90
11934;DHT22;6026;48.784;9.198;2023-05-10T11:57:28;16.40;99.90
11934;DHT22;6026;48.784;9.198;2023-05-10T11:59:56;16.30;99.90
11934;DHT22;6026;48.784;9.198;2023-05-10T12:02:23;16.20;99.90
11934;DHT22;6026;48.784;9.198;2023-05-10T12:04:49;16.00;99.90
11934;DHT22;6026;48.784;9.198;2023-05-10T12:07:16;15.90;99.90
11934;DHT22;6026;48.784;9.198;2023-05-10T12:09:44;16.00;99.90
11934;DHT22;6026;48.784;9.198;2023-05-10T12:12:15;16.00;99.90
11934;DHT22;6026;48.784;9.198;2023-05-10T12:14:41;15.90;99.90
11934;DHT22;6026;48.784;9.198;2023-05-10T12:17:11;16.00;99.90
11934;DHT22;6026;48.784;9.198;2023-05-10T12:19:38;15.90;99.90
11934;DHT22;6026;48.784;9.198;2023-05-10T12:22:05;16.00;99.90
11934;DHT22;6026;48.784;9.198;2023-05-10T12:24:36;16.10;99.90
11934;DHT22;6026;48.784;9.198;2023-05-10T12:27:08;16.20;99.90
11934;DHT22;6026;48.784;9.198;2023-05-10T12:29:33;16.30;99.90
11934;DHT22;6026;48.784;9.198;2023-05-10T12:31:59;16.50;99.90
11934;DHT22;6026;48.784;9.198;2023-05-10T12:34:35;16.60;99.90
11934;DHT22;6026;48.784;9.198;2023-05-10T12:37:02;16.60;99.90
11934;DHT22;6026;48.784;9.198;2023-05-10T12:39:44;16.70;99.90
11934;DHT22;6026;48.784;9.198;2023-05-10T12:42:10;16.80;99.90
11934;DHT22;6026;48.784;9.198;2023-05-10T12:44:36;16.90;99.90
11934;DHT22;6026;48.784;9.198;2023-05-10T12:47:01;17.00;99.90
11934;DHT22;6026;48.784;9.198;2023-05-10T12:49:27;17.00;99.90
11934;DHT22;6026;48.784;9.198;2023-05-10T12:51:52;17.10;99.90
11934;DHT22;6026;48.784;9.198;2023-05-10T12:54:18;17.00;99.90
11934;DHT22;6026;48.784;9.198;2023-05-10T12:56:43;17.00;99.90
11934;DHT22;6026;48.784;9.198;2023-05-10T12:59:09;17.10;99.90
11934;DHT22;6026;48.784;9.198;2023-05-10T13:01:35;17.10;99.90
11934;DHT22;6026;48.784;9.198;2023-05-10T13:04:00;16.90;99.90
11934;DHT22;6026;48.784;9.198;2023-05-10T13:06:26;16.70;99.90
11934;DHT22;6026;48.784;9.198;2023-05-10T13:08:51;16.70;99.90
11934;DHT22;6026;48.784;9.198;2023-05-10T13:11:17;16.50;99.90
11934;DHT22;6026;48.784;9.198;2023-05-10T13:13:45;16.40;99.90
11934;DHT22;6026;48.784;9.198;2023-05-10T13:16:10;16.20;99.90
11934;DHT22;6026;48.784;9.198;2023-05-10T13:18:36;16.10;99.90
11934;DHT22;6026;48.784;9.198;2023-05-10T13:21:01;16.10;99.90
11934;DHT22;6026;48.784;9.198;2023-05-10T13:23:29;16.00;99.90
11934;DHT22;6026;48.784;9.198;2023-05-10T13:25:54;16.00;99.90
11934;DHT22;6026;48.784;9.198;2023-05-10T13:28:20;16.10;99.90
11934;DHT22;6026;48.784;9.198;2023-05-10T13:30:45;16.20;99.90
11934;DHT22;6026;48.784;9.198;2023-05-10T13:33:11;16.30;99.90
11934;DHT22;6026;48.784;9.198;2023-05-10T13:35:37;16.40;99.90
11934;DHT22;6026;48.784;9.198;2023-05-10T13:38:02;16.60;99.90
11934;DHT22;6026;48.784;9.198;2023-05-10T13:40:28;16.70;99.90
11934;DHT22;6026;48.784;9.198;2023-05-10T13:42:53;16.80;99.90
11934;DHT22;6026;48.784;9.198;2023-05-10T13:45:19;16.90;99.90
11934;DHT22;6026;48.784;9.198;2023-05-10T13:47:45;16.90;99.90
11934;DHT22;6026;48.784;9.198;2023-05-10T13:50:10;17.10;99.90
11934;DHT22;6026;48.784;9.198;2023-05-10T13:52:36;17.10;99.90
11934;DHT22;6026;48.784;9.198;2023-05-10T13:55:01;17.20;99.90
11934;DHT22;6026;48.784;9.198;2023-05-10T13:57:27;17.20;99.90
11934;DHT22;6026;48.784;9.198;2023-05-10T13:59:54;17.20;99.90
11934;DHT22;6026;48.784;9.198;2023-05-10T14:02:19;17.10;99.90
11934;DHT22;6026;48.784;9.198;2023-05-10T14:04:45;17.10;99.90
11934;DHT22;6026;48.784;9.198;2023-05-10T14:07:11;17.10;99.90
11934;DHT22;6026;48.784;9.198;2023-05-10T14:09:36;17.20;99.90
11934;DHT22;6026;48.784;9.198;2023-05-10T14:12:02;17.20;99.90
11934;DHT22;6026;48.784;9.198;2023-05-10T14:14:28;17.20;99.90
11934;DHT22;6026;48.784;9.198;2023-05-10T14:16:54;17.30;99.90
11934;DHT22;6026;48.784;9.198;2023-05-10T14:19:20;17.20;99.90
11934;DHT22;6026;48.784;9.198;2023-05-10T14:21:45;17.30;99.90
11934;DHT22;6026;48.784;9.198;2023-05-10T14:24:11;17.20;99.90
11934;DHT22;6026;48.784;9.198;2023-05-10T14:26:37;17.30;99.90
11934;DHT22;6026;48.784;9.198;2023-05-10T14:29:02;17.30;99.90
11934;DHT22;6026;48.784;9.198;2023-05-10T14:31:28;17.40;99.90
11934;DHT22;6026;48.784;9.198;2023-05-10T14:33:55;17.50;99.90
11934;DHT22;6026;48.784;9.198;2023-05-10T14:36:21;17.50;99.90
11934;DHT22;6026;48.784;9.198;2023-05-10T14:38:46;17.60;99.90
11934;DHT22;6026;48.784;9.198;2023-05-10T14:41:12;17.60;99.90
11934;DHT22;6026;48.784;9.198;2023-05-10T14:43:40;17.60;99.90
11934;DHT22;6026;48.784;9.198;2023-05-10T14:46:05;17.70;99.90
11934;DHT22;6026;48.784;9.198;2023-05-10T14:48:31;17.70;99.90
11934;DHT22;6026;48.784;9.198;2023-05-10T14:50:57;17.80;99.90
11934;DHT22;6026;48.784;9.198;2023-05-10T14:53:22;17.70;99.90
11934;DHT22;6026;48.784;9.198;2023-05-10T14:55:48;17.70;99.90
11934;DHT22;6026;48.784;9.198;2023-05-10T14:58:13;17.80;99.90
11934;DHT22;6026;48.784;9.198;2023-05-10T15:00:40;17.80;99.90
11934;DHT22;6026;48.784;9.198;2023-05-10T15:03:05;17.80;99.90
11934;DHT22;6026;48.784;9.198;2023-05-10T15:05:31;17.80;99.90
11934;DHT22;6026;48.784;9.198;2023-05-10T15:07:56;17.90;99.90
11934;DHT22;6026;48.784;9.198;2023-05-10T15:10:22;17.70;99.90
11934;DHT22;6026;48.784;9.198;2023-05-10T15:12:47;17.80;99.90
11934;DHT22;6026;48.784;9.198;2023-05-10T15:15:13;17.80;99.90
11934;DHT22;6026;48.784;9.198;2023-05-10T15:17:38;17.70;99.90
11934;DHT22;6026;48.784;9.198;2023-05-10T15:20:04;17.70;99.90
11934;DHT22;6026;48.784;9.198;2023-05-10T15:22:30;17.70;99.90
11934;DHT22;6026;48.784;9.198;2023-05-10T15:24:57;17.70;99.90
11934;DHT22;6026;48.784;9.198;2023-05-10T15:27:23;17.50;99.90
11934;DHT22;6026;48.784;9.198;2023-05-10T15:29:49;17.60;99.90
11934;DHT22;6026;48.784;9.198;2023-05-10T15:32:14;17.60;99.90
11934;DHT22;6026;48.784;9.198;2023-05-10T15:34:40;17.50;99.90
11934;DHT22;6026;48.784;9.198;2023-05-10T15:37:06;17.60;99.90
11934;DHT22;6026;48.784;9.198;2023-05-10T15:39:32;17.60;99.90
11934;DHT22;6026;48.784;9.198;2023-05-10T15:42:05;17.60;99.90
11934;DHT22;6026;48.784;9.198;2023-05-10T15:44:30;17.60;99.90
11934;DHT22;6026;48.784;9.198;2023-05-10T15:46:56;17.70;99.90
11934;DHT22;6026;48.784;9.198;2023-05-10T15:49:21;17.60;99.90
11934;DHT22;6026;48.784;9.198;2023-05-10T15:51:47;17.60;99.90
11934;DHT22;6026;48.784;9.198;2023-05-10T15:54:13;17.60;99.90
11934;DHT22;6026;48.784;9.198;2023-05-10T15:56:39;17.60;99.90
11934;DHT22;6026;48.784;9.198;2023-05-10T15:59:06;17.60;99.90
11934;DHT22;6026;48.784;9.198;2023-05-10T16:01:33;17.50;99.90
11934;DHT22;6026;48.784;9.198;2023-05-10T16:03:59;17.50;99.90
11934;DHT22;6026;48.784;9.198;2023-05-10T16:06:24;17.40;99.90
11934;DHT22;6026;48.784;9.198;2023-05-10T16:08:50;17.30;99.90
11934;DHT22;6026;48.784;9.198;2023-05-10T16:11:16;17.20;99.90
11934;DHT22;6026;48.784;9.198;2023-05-10T16:13:41;17.20;99.90